createdAt,value
2017-07-22T00:00:05.047Z,21.1
2017-07-22T00:01:07.474Z,21.1
2017-07-22T00:02:09.581Z,21.1
2017-07-22T00:03:11.666Z,21.1
2017-07-22T00:04:13.758Z,21.1
2017-07-22T00:05:16.192Z,21.1
2017-07-22T00:06:18.292Z,21.2
2017-07-22T00:07:20.379Z,21.1
2017-07-22T00:08:22.819Z,21.2
2017-07-22T00:09:24.916Z,21.1
2017-07-22T00:10:27.007Z,21.2
2017-07-22T00:11:29.422Z,21.2
2017-07-22T00:12:31.539Z,21.2
2017-07-22T00:13:33.643Z,21.2
2017-07-22T00:14:36.069Z,21.2
2017-07-22T00:15:38.855Z,21.2
2017-07-22T00:16:41.293Z,21.2
2017-07-22T00:17:43.741Z,21.2
2017-07-22T00:18:45.835Z,21.2
2017-07-22T00:19:48.267Z,21.2
2017-07-22T00:20:50.348Z,21.2
2017-07-22T00:21:52.435Z,21.2
2017-07-22T00:22:54.884Z,21.2
2017-07-22T00:23:56.974Z,21.2
2017-07-22T00:24:59.066Z,21.2
2017-07-22T00:26:01.495Z,21.2
2017-07-22T00:27:04.315Z,21.2
2017-07-22T00:28:06.394Z,21.2
2017-07-22T00:29:08.487Z,21.2
2017-07-22T00:30:10.946Z,21.2
2017-07-22T00:31:13.385Z,21.2
2017-07-22T00:32:15.469Z,21.2
2017-07-22T00:33:17.565Z,21.2
2017-07-22T00:34:19.654Z,21.2
2017-07-22T00:35:22.089Z,21.2
2017-07-22T00:36:24.168Z,21.2
2017-07-22T00:37:26.275Z,21.2
2017-07-22T00:38:28.353Z,21.2
2017-07-22T00:39:30.448Z,21.2
2017-07-22T00:40:33.241Z,21.2
2017-07-22T00:41:35.651Z,21.2
2017-07-22T00:42:37.739Z,21.2
2017-07-22T00:43:40.179Z,21.2
2017-07-22T00:44:42.263Z,21.1
2017-07-22T00:45:44.708Z,21.1
2017-07-22T00:46:46.793Z,21.1
2017-07-22T00:47:48.900Z,21.1
2017-07-22T00:48:51.345Z,21.1
2017-07-22T00:49:53.437Z,21.1
2017-07-22T00:50:55.527Z,21.1
2017-07-22T00:51:57.616Z,21
2017-07-22T00:53:00.388Z,21
2017-07-22T00:54:02.477Z,21
2017-07-22T00:55:04.562Z,21
2017-07-22T00:56:06.657Z,21
2017-07-22T00:57:08.745Z,21
2017-07-22T00:58:10.838Z,21
2017-07-22T00:59:12.952Z,21
2017-07-22T01:00:15.047Z,21
2017-07-22T01:01:17.468Z,21
2017-07-22T01:02:19.554Z,21
2017-07-22T01:03:21.659Z,21
2017-07-22T01:04:23.759Z,21
2017-07-22T01:05:26.202Z,21
2017-07-22T01:06:28.980Z,21
2017-07-22T01:07:31.409Z,21
2017-07-22T01:08:33.496Z,21
2017-07-22T01:09:35.573Z,21
2017-07-22T01:10:37.682Z,21
2017-07-22T01:11:39.773Z,21.1
2017-07-22T01:12:42.181Z,21.1
2017-07-22T01:13:44.280Z,21.1
2017-07-22T01:14:46.391Z,21.1
2017-07-22T01:15:48.497Z,21.1
2017-07-22T01:16:50.930Z,21
2017-07-22T01:17:53.044Z,21.1
2017-07-22T01:18:55.833Z,21
2017-07-22T01:19:58.925Z,21
2017-07-22T01:21:01.693Z,21
2017-07-22T01:22:03.777Z,21
2017-07-22T01:23:05.871Z,21
2017-07-22T01:24:07.975Z,21
2017-07-22T01:25:10.059Z,21
2017-07-22T01:26:12.192Z,21
2017-07-22T01:27:14.283Z,21.1
2017-07-22T01:28:16.384Z,21
2017-07-22T01:29:18.815Z,21.1
2017-07-22T01:30:20.904Z,21.1
2017-07-22T01:31:22.994Z,21.1
2017-07-22T01:32:25.077Z,21.1
2017-07-22T01:33:27.169Z,21.1
2017-07-22T01:34:29.595Z,21.1
2017-07-22T01:35:31.665Z,21.1
2017-07-22T01:36:33.756Z,21.1
2017-07-22T01:37:36.175Z,21.1
2017-07-22T01:38:38.329Z,21.1
2017-07-22T01:39:40.756Z,21.2
2017-07-22T01:40:42.847Z,21.2
2017-07-22T01:41:44.939Z,21.2
2017-07-22T01:42:47.038Z,21.2
2017-07-22T01:43:49.117Z,21.2
2017-07-22T01:44:51.221Z,21.2
2017-07-22T01:45:53.306Z,21.3
2017-07-22T01:46:56.064Z,21.2
2017-07-22T01:47:58.151Z,21.3
2017-07-22T01:49:00.587Z,21.3
2017-07-22T01:50:02.670Z,21.3
2017-07-22T01:51:04.801Z,21.3
2017-07-22T01:52:07.551Z,21.3
2017-07-22T01:53:09.653Z,21.3
2017-07-22T01:54:11.738Z,21.3
2017-07-22T01:55:14.504Z,21.3
2017-07-22T01:56:16.581Z,21.3
2017-07-22T01:57:18.664Z,21.3
2017-07-22T01:58:20.775Z,21.3
2017-07-22T01:59:23.208Z,21.3
2017-07-22T02:00:25.617Z,21.4
2017-07-22T02:01:27.718Z,21.3
2017-07-22T02:02:29.801Z,21.3
2017-07-22T02:03:31.894Z,21.3
2017-07-22T02:04:33.983Z,21.3
2017-07-22T02:05:36.071Z,21.3
2017-07-22T02:06:38.177Z,21.3
2017-07-22T02:07:40.594Z,21.3
2017-07-22T02:08:42.689Z,21.3
2017-07-22T02:09:44.804Z,21.3
2017-07-22T02:10:46.877Z,21.2
2017-07-22T02:11:49.319Z,21.2
2017-07-22T02:12:51.742Z,21.2
2017-07-22T02:13:53.829Z,21.2
2017-07-22T02:14:55.916Z,21.2
2017-07-22T02:15:58.019Z,21.2
2017-07-22T02:17:00.114Z,21.2
2017-07-22T02:18:02.201Z,21.1
2017-07-22T02:19:04.284Z,21.1
2017-07-22T02:20:07.051Z,21.1
2017-07-22T02:21:09.172Z,21.1
2017-07-22T02:22:11.261Z,21.1
2017-07-22T02:23:13.696Z,21
2017-07-22T02:24:16.134Z,21
2017-07-22T02:25:18.230Z,21
2017-07-22T02:26:20.313Z,21
2017-07-22T02:27:22.416Z,21
2017-07-22T02:28:24.855Z,21
2017-07-22T02:29:26.944Z,20.9
2017-07-22T02:30:29.365Z,20.9
2017-07-22T02:31:31.819Z,20.9
2017-07-22T02:32:34.274Z,20.9
2017-07-22T02:33:36.363Z,20.9
2017-07-22T02:34:38.816Z,20.9
2017-07-22T02:35:40.916Z,20.8
2017-07-22T02:36:43.689Z,20.8
2017-07-22T02:37:45.774Z,20.8
2017-07-22T02:38:47.865Z,20.8
2017-07-22T02:39:49.971Z,20.8
2017-07-22T02:40:52.757Z,20.8
2017-07-22T02:41:54.849Z,20.8
2017-07-22T02:42:57.297Z,20.8
2017-07-22T02:44:00.065Z,20.8
2017-07-22T02:45:02.856Z,20.8
2017-07-22T02:46:05.289Z,20.8
2017-07-22T02:47:07.387Z,20.8
2017-07-22T02:48:09.841Z,20.8
2017-07-22T02:49:11.944Z,20.8
2017-07-22T02:50:14.031Z,20.8
2017-07-22T02:51:16.464Z,20.8
2017-07-22T02:52:18.571Z,20.8
2017-07-22T02:53:20.993Z,20.8
2017-07-22T02:54:23.081Z,20.8
2017-07-22T02:55:25.176Z,20.8
2017-07-22T02:56:27.275Z,20.8
2017-07-22T02:57:29.371Z,20.8
2017-07-22T02:58:31.468Z,20.8
2017-07-22T02:59:33.917Z,20.8
2017-07-22T03:00:36.004Z,20.8
2017-07-22T03:01:38.085Z,20.8
2017-07-22T03:02:40.510Z,20.8
2017-07-22T03:03:42.601Z,20.8
2017-07-22T03:04:45.028Z,20.8
2017-07-22T03:05:47.127Z,20.8
2017-07-22T03:06:49.209Z,20.8
2017-07-22T03:07:51.651Z,20.8
2017-07-22T03:08:53.737Z,20.8
2017-07-22T03:09:56.170Z,20.8
2017-07-22T03:10:58.599Z,20.8
2017-07-22T03:12:01.070Z,20.8
2017-07-22T03:13:03.839Z,20.8
2017-07-22T03:14:06.270Z,20.8
2017-07-22T03:15:08.701Z,20.7
2017-07-22T03:16:10.805Z,20.7
2017-07-22T03:17:12.908Z,20.8
2017-07-22T03:18:14.991Z,20.7
2017-07-22T03:19:17.083Z,20.7
2017-07-22T03:20:19.517Z,20.7
2017-07-22T03:21:21.598Z,20.7
2017-07-22T03:22:24.060Z,20.7
2017-07-22T03:23:26.149Z,20.7
2017-07-22T03:24:28.583Z,20.7
2017-07-22T03:25:30.671Z,20.7
2017-07-22T03:26:33.087Z,20.7
2017-07-22T03:27:35.185Z,20.7
2017-07-22T03:28:37.269Z,20.7
2017-07-22T03:29:39.385Z,20.7
2017-07-22T03:30:41.822Z,20.7
2017-07-22T03:31:43.914Z,20.7
2017-07-22T03:32:46.361Z,20.7
2017-07-22T03:33:49.137Z,20.7
2017-07-22T03:34:51.220Z,20.7
2017-07-22T03:35:53.652Z,20.7
2017-07-22T03:36:56.093Z,20.7
2017-07-22T03:37:58.891Z,20.7
2017-07-22T03:39:01.338Z,20.7
2017-07-22T03:40:03.431Z,20.7
2017-07-22T03:41:05.531Z,20.6
2017-07-22T03:42:07.608Z,20.7
2017-07-22T03:43:10.044Z,20.7
2017-07-22T03:44:12.140Z,20.7
2017-07-22T03:45:14.242Z,20.7
2017-07-22T03:46:16.336Z,20.6
2017-07-22T03:47:18.772Z,20.6
2017-07-22T03:48:20.863Z,20.7
2017-07-22T03:49:23.291Z,20.6
2017-07-22T03:50:25.747Z,20.6
2017-07-22T03:51:28.184Z,20.7
2017-07-22T03:52:30.273Z,20.6
2017-07-22T03:53:32.704Z,20.7
2017-07-22T03:54:35.127Z,20.6
2017-07-22T03:55:37.948Z,20.7
2017-07-22T03:56:40.026Z,20.7
2017-07-22T03:57:42.460Z,20.7
2017-07-22T03:58:44.895Z,20.7
2017-07-22T03:59:46.991Z,20.7
2017-07-22T04:00:49.084Z,20.7
2017-07-22T04:01:51.164Z,20.7
2017-07-22T04:02:53.614Z,20.7
2017-07-22T04:03:55.726Z,20.8
2017-07-22T04:04:57.816Z,20.7
2017-07-22T04:06:00.245Z,20.8
2017-07-22T04:07:02.718Z,20.8
2017-07-22T04:08:04.827Z,20.7
2017-07-22T04:09:06.910Z,20.8
2017-07-22T04:10:09.013Z,20.8
2017-07-22T04:11:11.447Z,20.7
2017-07-22T04:12:13.867Z,20.7
2017-07-22T04:13:15.979Z,20.7
2017-07-22T04:14:18.418Z,20.7
2017-07-22T04:15:20.846Z,20.8
2017-07-22T04:16:22.940Z,20.7
2017-07-22T04:17:25.370Z,20.8
2017-07-22T04:18:27.789Z,20.7
2017-07-22T04:19:30.216Z,20.8
2017-07-22T04:20:32.654Z,20.8
2017-07-22T04:21:34.744Z,20.8
2017-07-22T04:22:36.827Z,20.8
2017-07-22T04:23:39.292Z,20.8
2017-07-22T04:24:41.722Z,20.8
2017-07-22T04:25:43.815Z,20.8
2017-07-22T04:26:45.910Z,20.8
2017-07-22T04:27:48.351Z,20.8
2017-07-22T04:28:50.782Z,20.8
2017-07-22T04:29:52.853Z,20.8
2017-07-22T04:30:54.961Z,20.9
2017-07-22T04:31:57.058Z,20.9
2017-07-22T04:32:59.837Z,20.9
2017-07-22T04:34:02.603Z,20.9
2017-07-22T04:35:05.060Z,20.9
2017-07-22T04:36:07.833Z,20.9
2017-07-22T04:37:09.900Z,21
2017-07-22T04:38:12.323Z,21
2017-07-22T04:39:14.429Z,21
2017-07-22T04:40:16.519Z,21
2017-07-22T04:41:18.610Z,21
2017-07-22T04:42:21.049Z,21
2017-07-22T04:43:23.143Z,21
2017-07-22T04:44:25.595Z,21.1
2017-07-22T04:45:27.681Z,21.1
2017-07-22T04:46:29.774Z,21.1
2017-07-22T04:47:31.873Z,21.1
2017-07-22T04:48:33.965Z,21.1
2017-07-22T04:49:36.072Z,21.2
2017-07-22T04:50:38.185Z,21.2
2017-07-22T04:51:40.614Z,21.2
2017-07-22T04:52:42.714Z,21.3
2017-07-22T04:53:44.838Z,21.3
2017-07-22T04:54:46.946Z,21.3
2017-07-22T04:55:49.047Z,21.3
2017-07-22T04:56:51.163Z,21.3
2017-07-22T04:57:53.274Z,21.3
2017-07-22T04:58:55.383Z,21.3
2017-07-22T04:59:57.824Z,21.4
2017-07-22T05:01:00.635Z,21.4
2017-07-22T05:02:02.750Z,21.4
2017-07-22T05:03:05.196Z,21.4
2017-07-22T05:04:07.299Z,21.4
2017-07-22T05:05:09.769Z,21.5
2017-07-22T05:06:11.899Z,21.5
2017-07-22T05:07:14.002Z,21.5
2017-07-22T05:08:16.117Z,21.5
2017-07-22T05:09:18.216Z,21.5
2017-07-22T05:10:20.676Z,21.5
2017-07-22T05:11:22.774Z,21.5
2017-07-22T05:12:24.882Z,21.5
2017-07-22T05:13:26.993Z,21.5
2017-07-22T05:14:29.444Z,21.5
2017-07-22T05:15:31.542Z,21.5
2017-07-22T05:16:33.988Z,21.5
2017-07-22T05:17:36.119Z,21.6
2017-07-22T05:18:38.233Z,21.6
2017-07-22T05:19:40.332Z,21.6
2017-07-22T05:20:42.433Z,21.6
2017-07-22T05:21:44.558Z,21.6
2017-07-22T05:22:46.661Z,21.6
2017-07-22T05:23:48.759Z,21.6
2017-07-22T05:24:50.878Z,21.7
2017-07-22T05:25:52.985Z,21.7
2017-07-22T05:26:55.444Z,21.7
2017-07-22T05:27:57.560Z,21.7
2017-07-22T05:28:59.992Z,21.8
2017-07-22T05:30:02.466Z,21.8
2017-07-22T05:31:04.919Z,21.8
2017-07-22T05:32:07.031Z,21.8
2017-07-22T05:33:09.177Z,21.9
2017-07-22T05:34:11.445Z,21.9
2017-07-22T05:35:13.921Z,21.9
2017-07-22T05:36:16.407Z,21.9
2017-07-22T05:37:18.533Z,22
2017-07-22T05:38:20.989Z,22
2017-07-22T05:39:23.091Z,22
2017-07-22T05:40:25.549Z,22
2017-07-22T05:41:27.656Z,22.1
2017-07-22T05:42:29.760Z,22.1
2017-07-22T05:43:31.877Z,22.1
2017-07-22T05:44:33.977Z,22.1
2017-07-22T05:45:36.093Z,22.1
2017-07-22T05:46:38.542Z,22.1
2017-07-22T05:47:41.047Z,22.2
2017-07-22T05:48:43.148Z,22.1
2017-07-22T05:49:45.276Z,22.2
2017-07-22T05:50:47.365Z,22.2
2017-07-22T05:51:49.489Z,22.2
2017-07-22T05:52:51.589Z,22.2
2017-07-22T05:53:53.715Z,22.2
2017-07-22T05:54:56.192Z,22.2
2017-07-22T05:55:58.307Z,22.3
2017-07-22T05:57:00.413Z,22.2
2017-07-22T05:58:02.536Z,22.3
2017-07-22T05:59:04.647Z,22.3
2017-07-22T06:00:06.761Z,22.4
2017-07-22T06:01:08.864Z,22.4
2017-07-22T06:02:11.349Z,22.5
2017-07-22T06:03:13.447Z,22.5
2017-07-22T06:04:15.544Z,22.5
2017-07-22T06:05:18.013Z,22.5
2017-07-22T06:06:20.116Z,22.5
2017-07-22T06:07:22.213Z,22.5
2017-07-22T06:08:24.308Z,22.6
2017-07-22T06:09:26.444Z,22.6
2017-07-22T06:10:28.558Z,22.6
2017-07-22T06:11:30.674Z,22.6
2017-07-22T06:12:33.127Z,22.6
2017-07-22T06:13:35.224Z,22.7
2017-07-22T06:14:37.336Z,22.7
2017-07-22T06:15:39.455Z,22.8
2017-07-22T06:16:41.564Z,22.8
2017-07-22T06:17:43.679Z,22.8
2017-07-22T06:18:45.776Z,22.8
2017-07-22T06:19:47.895Z,22.7
2017-07-22T06:20:50.004Z,22.8
2017-07-22T06:21:52.449Z,22.8
2017-07-22T06:22:54.880Z,22.8
2017-07-22T06:23:56.992Z,22.7
2017-07-22T06:24:59.104Z,22.8
2017-07-22T06:26:02.548Z,22.7
2017-07-22T06:27:04.651Z,22.8
2017-07-22T06:28:06.761Z,22.8
2017-07-22T06:29:08.870Z,22.8
2017-07-22T06:30:10.981Z,22.8
2017-07-22T06:31:13.084Z,22.9
2017-07-22T06:32:15.205Z,22.9
2017-07-22T06:33:17.319Z,22.9
2017-07-22T06:34:19.435Z,22.9
2017-07-22T06:35:21.535Z,22.9
2017-07-22T06:36:23.665Z,23
2017-07-22T06:37:25.790Z,23
2017-07-22T06:38:27.888Z,23.1
2017-07-22T06:39:29.995Z,23.1
2017-07-22T06:40:32.104Z,23.1
2017-07-22T06:41:34.199Z,23.2
2017-07-22T06:42:37.356Z,23.2
2017-07-22T06:43:39.448Z,23.2
2017-07-22T06:44:41.893Z,23.2
2017-07-22T06:45:44.008Z,23.3
2017-07-22T06:46:46.468Z,23.3
2017-07-22T06:47:48.571Z,23.3
2017-07-22T06:48:50.676Z,23.3
2017-07-22T06:49:52.792Z,23.4
2017-07-22T06:50:55.600Z,23.4
2017-07-22T06:51:58.029Z,23.4
2017-07-22T06:53:00.474Z,23.4
2017-07-22T06:54:02.907Z,23.4
2017-07-22T06:55:06.066Z,23.4
2017-07-22T06:56:08.587Z,23.5
2017-07-22T06:57:11.055Z,23.6
2017-07-22T06:58:13.160Z,23.6
2017-07-22T06:59:15.924Z,23.6
2017-07-22T07:00:18.040Z,23.6
2017-07-22T07:01:20.154Z,23.6
2017-07-22T07:02:22.270Z,23.6
2017-07-22T07:03:24.707Z,23.7
2017-07-22T07:04:27.496Z,23.7
2017-07-22T07:05:29.610Z,23.8
2017-07-22T07:06:31.699Z,23.8
2017-07-22T07:07:33.809Z,23.8
2017-07-22T07:08:36.267Z,23.8
2017-07-22T07:09:38.711Z,23.9
2017-07-22T07:10:40.822Z,23.9
2017-07-22T07:11:43.255Z,23.9
2017-07-22T07:12:45.355Z,23.9
2017-07-22T07:13:47.461Z,24
2017-07-22T07:14:49.553Z,24
2017-07-22T07:15:51.672Z,24
2017-07-22T07:16:53.778Z,24.1
2017-07-22T07:17:56.238Z,24.1
2017-07-22T07:18:58.378Z,24.2
2017-07-22T07:20:00.508Z,24.2
2017-07-22T07:21:02.650Z,24.3
2017-07-22T07:22:04.761Z,24.3
2017-07-22T07:23:07.207Z,24.3
2017-07-22T07:24:09.334Z,24.3
2017-07-22T07:25:11.757Z,24.4
2017-07-22T07:26:13.869Z,24.4
2017-07-22T07:27:15.978Z,24.4
2017-07-22T07:28:18.078Z,24.4
2017-07-22T07:29:20.188Z,24.5
2017-07-22T07:30:22.291Z,24.5
2017-07-22T07:31:24.410Z,24.5
2017-07-22T07:32:26.544Z,24.6
2017-07-22T07:33:28.637Z,24.7
2017-07-22T07:34:30.742Z,24.7
2017-07-22T07:35:32.841Z,24.8
2017-07-22T07:36:34.949Z,24.8
2017-07-22T07:37:37.048Z,24.8
2017-07-22T07:38:39.496Z,24.9
2017-07-22T07:39:41.624Z,24.9
2017-07-22T07:40:44.410Z,24.9
2017-07-22T07:41:46.512Z,25
2017-07-22T07:42:48.615Z,25.1
2017-07-22T07:43:51.085Z,25.1
2017-07-22T07:44:53.188Z,25.1
2017-07-22T07:45:55.656Z,25.2
2017-07-22T07:46:57.761Z,25.3
2017-07-22T07:47:59.885Z,25.3
2017-07-22T07:49:02.660Z,25.3
2017-07-22T07:50:05.462Z,25.3
2017-07-22T07:51:08.255Z,25.4
2017-07-22T07:52:10.693Z,25.4
2017-07-22T07:53:12.809Z,25.5
2017-07-22T07:54:15.243Z,25.5
2017-07-22T07:55:18.031Z,25.5
2017-07-22T07:56:20.168Z,25.5
2017-07-22T07:57:22.274Z,25.6
2017-07-22T07:58:24.374Z,25.6
2017-07-22T07:59:26.478Z,25.7
2017-07-22T08:00:28.598Z,25.8
2017-07-22T08:01:30.712Z,25.9
2017-07-22T08:02:32.827Z,25.9
2017-07-22T08:03:35.604Z,26
2017-07-22T08:04:37.722Z,26
2017-07-22T08:05:39.826Z,26.1
2017-07-22T08:06:41.941Z,26.1
2017-07-22T08:07:44.409Z,26.2
2017-07-22T08:08:46.511Z,26.3
2017-07-22T08:09:48.618Z,26.4
2017-07-22T08:10:50.730Z,26.5
2017-07-22T08:11:52.870Z,26.5
2017-07-22T08:12:54.969Z,26.6
2017-07-22T08:13:57.071Z,26.6
2017-07-22T08:14:59.184Z,26.7
2017-07-22T08:16:01.296Z,26.7
2017-07-22T08:17:03.421Z,26.8
2017-07-22T08:18:05.522Z,26.8
2017-07-22T08:19:07.624Z,26.9
2017-07-22T08:20:09.752Z,26.9
2017-07-22T08:21:11.872Z,26.9
2017-07-22T08:22:13.993Z,26.9
2017-07-22T08:23:16.100Z,26.9
2017-07-22T08:24:18.543Z,26.8
2017-07-22T08:25:21.001Z,26.8
2017-07-22T08:26:23.443Z,26.7
2017-07-22T08:27:25.579Z,26.7
2017-07-22T08:28:27.684Z,26.7
2017-07-22T08:29:30.146Z,26.7
2017-07-22T08:30:32.937Z,26.7
2017-07-22T08:31:35.077Z,26.7
2017-07-22T08:32:37.201Z,26.6
2017-07-22T08:33:39.293Z,26.6
2017-07-22T08:34:41.401Z,26.6
2017-07-22T08:35:44.217Z,26.6
2017-07-22T08:36:46.683Z,26.6
2017-07-22T08:37:48.795Z,26.6
2017-07-22T08:38:51.235Z,26.5
2017-07-22T08:39:53.687Z,26.5
2017-07-22T08:40:56.112Z,26.5
2017-07-22T08:41:58.223Z,26.5
2017-07-22T08:43:00.344Z,26.5
2017-07-22T08:44:02.446Z,26.5
2017-07-22T08:45:05.244Z,26.5
2017-07-22T08:46:07.680Z,26.5
2017-07-22T08:47:09.797Z,26.4
2017-07-22T08:48:11.917Z,26.4
2017-07-22T08:49:14.373Z,26.4
2017-07-22T08:50:16.482Z,26.4
2017-07-22T08:51:18.589Z,26.4
2017-07-22T08:52:20.705Z,26.4
2017-07-22T08:53:22.802Z,26.3
2017-07-22T08:54:24.905Z,26.3
2017-07-22T08:55:27.364Z,26.3
2017-07-22T08:56:29.461Z,26.3
2017-07-22T08:57:31.918Z,26.3
2017-07-22T08:58:34.022Z,26.2
2017-07-22T08:59:36.468Z,26.2
2017-07-22T09:00:38.950Z,26.2
2017-07-22T09:01:41.052Z,26.1
2017-07-22T09:02:43.171Z,26.1
2017-07-22T09:03:45.950Z,26.1
2017-07-22T09:04:48.044Z,26
2017-07-22T09:05:51.178Z,26
2017-07-22T09:06:53.849Z,26
2017-07-22T09:07:56.311Z,26
2017-07-22T09:08:58.422Z,26
2017-07-22T09:10:00.866Z,25.9
2017-07-22T09:11:02.971Z,25.9
2017-07-22T09:12:05.100Z,25.9
2017-07-22T09:13:07.542Z,25.9
2017-07-22T09:14:10.000Z,25.9
2017-07-22T09:15:12.105Z,25.9
2017-07-22T09:16:14.208Z,25.9
2017-07-22T09:17:17.004Z,25.9
2017-07-22T09:18:19.456Z,25.9
2017-07-22T09:19:21.951Z,26
2017-07-22T09:20:24.074Z,26
2017-07-22T09:21:26.185Z,26
2017-07-22T09:22:28.304Z,26
2017-07-22T09:23:30.418Z,26
2017-07-22T09:24:32.521Z,26.1
2017-07-22T09:25:34.976Z,26.1
2017-07-22T09:26:37.088Z,26.1
2017-07-22T09:27:39.209Z,26.2
2017-07-22T09:28:41.636Z,26.2
2017-07-22T09:29:44.084Z,26.2
2017-07-22T09:30:46.191Z,26.2
2017-07-22T09:31:48.298Z,26.3
2017-07-22T09:32:50.407Z,26.3
2017-07-22T09:33:52.513Z,26.3
2017-07-22T09:34:54.608Z,26.3
2017-07-22T09:35:56.729Z,26.3
2017-07-22T09:36:58.821Z,26.4
2017-07-22T09:38:00.939Z,26.4
2017-07-22T09:39:03.749Z,26.4
2017-07-22T09:40:05.855Z,26.4
2017-07-22T09:41:08.305Z,26.5
2017-07-22T09:42:10.761Z,26.5
2017-07-22T09:43:12.864Z,26.5
2017-07-22T09:44:15.005Z,26.5
2017-07-22T09:45:17.105Z,26.5
2017-07-22T09:46:19.582Z,26.6
2017-07-22T09:47:21.711Z,26.6
2017-07-22T09:48:23.826Z,26.7
2017-07-22T09:49:25.927Z,26.7
2017-07-22T09:50:28.378Z,26.7
2017-07-22T09:51:30.481Z,26.7
2017-07-22T09:52:32.934Z,26.7
2017-07-22T09:53:35.043Z,26.8
2017-07-22T09:54:37.124Z,26.8
2017-07-22T09:55:39.255Z,26.8
2017-07-22T09:56:41.361Z,26.8
2017-07-22T09:57:43.493Z,26.9
2017-07-22T09:58:45.949Z,26.9
2017-07-22T09:59:48.066Z,26.9
2017-07-22T10:00:50.530Z,26.9
2017-07-22T10:01:53.311Z,26.9
2017-07-22T10:02:55.423Z,26.9
2017-07-22T10:03:57.550Z,26.9
2017-07-22T10:04:59.644Z,27
2017-07-22T10:06:02.098Z,27
2017-07-22T10:07:04.552Z,27
2017-07-22T10:08:06.644Z,27
2017-07-22T10:09:08.755Z,27
2017-07-22T10:10:11.231Z,27
2017-07-22T10:11:13.729Z,27
2017-07-22T10:12:15.836Z,27
2017-07-22T10:13:17.954Z,27
2017-07-22T10:14:20.398Z,27
2017-07-22T10:15:22.521Z,27
2017-07-22T10:16:24.624Z,27
2017-07-22T10:17:27.095Z,27
2017-07-22T10:18:29.214Z,27
2017-07-22T10:19:31.325Z,27
2017-07-22T10:20:33.774Z,27
2017-07-22T10:21:35.876Z,27
2017-07-22T10:22:38.317Z,27
2017-07-22T10:23:40.792Z,26.9
2017-07-22T10:24:43.259Z,26.9
2017-07-22T10:25:45.381Z,26.9
2017-07-22T10:26:47.844Z,26.9
2017-07-22T10:27:49.973Z,26.9
2017-07-22T10:28:52.084Z,26.9
2017-07-22T10:29:54.533Z,26.9
2017-07-22T10:30:56.651Z,26.9
2017-07-22T10:31:59.108Z,26.9
2017-07-22T10:33:01.221Z,26.8
2017-07-22T10:34:03.663Z,26.8
2017-07-22T10:35:05.775Z,26.8
2017-07-22T10:36:07.902Z,26.8
2017-07-22T10:37:09.992Z,26.7
2017-07-22T10:38:12.116Z,26.7
2017-07-22T10:39:14.224Z,26.7
2017-07-22T10:40:16.684Z,26.7
2017-07-22T10:41:18.799Z,26.7
2017-07-22T10:42:21.594Z,26.6
2017-07-22T10:43:23.709Z,26.6
2017-07-22T10:44:25.832Z,26.6
2017-07-22T10:45:28.632Z,26.6
2017-07-22T10:46:30.755Z,26.6
2017-07-22T10:47:32.862Z,26.5
2017-07-22T10:48:35.314Z,26.6
2017-07-22T10:49:37.753Z,26.6
2017-07-22T10:50:39.875Z,26.6
2017-07-22T10:51:41.992Z,26.5
2017-07-22T10:52:44.446Z,26.5
2017-07-22T10:53:46.554Z,26.5
2017-07-22T10:54:48.662Z,26.5
2017-07-22T10:55:50.779Z,26.5
2017-07-22T10:56:52.873Z,26.5
2017-07-22T10:57:54.992Z,26.4
2017-07-22T10:58:57.140Z,26.4
2017-07-22T10:59:59.246Z,26.4
2017-07-22T11:01:01.350Z,26.3
2017-07-22T11:02:03.797Z,26.3
2017-07-22T11:03:05.935Z,26.2
2017-07-22T11:04:08.041Z,26.2
2017-07-22T11:05:10.144Z,26.2
2017-07-22T11:06:12.251Z,26.2
2017-07-22T11:07:14.612Z,26.2
2017-07-22T11:08:16.755Z,26.1
2017-07-22T11:09:18.864Z,26.1
2017-07-22T11:10:20.972Z,26
2017-07-22T11:11:23.422Z,26
2017-07-22T11:12:25.534Z,26
2017-07-22T11:13:28.321Z,26
2017-07-22T11:14:30.455Z,25.9
2017-07-22T11:15:32.911Z,25.9
2017-07-22T11:16:35.046Z,25.9
2017-07-22T11:17:37.200Z,25.9
2017-07-22T11:18:39.320Z,25.9
2017-07-22T11:19:41.760Z,25.8
2017-07-22T11:20:44.212Z,25.8
2017-07-22T11:21:46.315Z,25.8
2017-07-22T11:22:48.430Z,25.8
2017-07-22T11:23:50.538Z,25.8
2017-07-22T11:24:53.020Z,25.7
2017-07-22T11:25:55.140Z,25.7
2017-07-22T11:26:57.247Z,25.6
2017-07-22T11:27:59.694Z,25.6
2017-07-22T11:29:01.799Z,25.6
2017-07-22T11:30:03.920Z,25.5
2017-07-22T11:31:06.041Z,25.5
2017-07-22T11:32:08.478Z,25.4
2017-07-22T11:33:10.587Z,25.4
2017-07-22T11:34:12.707Z,25.4
2017-07-22T11:35:15.482Z,25.3
2017-07-22T11:36:17.606Z,25.3
2017-07-22T11:37:19.733Z,25.2
2017-07-22T11:38:22.177Z,25.2
2017-07-22T11:39:24.284Z,25.1
2017-07-22T11:40:26.390Z,25.1
2017-07-22T11:41:28.475Z,25
2017-07-22T11:42:30.583Z,25
2017-07-22T11:43:32.722Z,24.9
2017-07-22T11:44:34.823Z,24.8
2017-07-22T11:45:37.602Z,24.8
2017-07-22T11:46:40.053Z,24.7
2017-07-22T11:47:42.170Z,24.7
2017-07-22T11:48:44.622Z,24.7
2017-07-22T11:49:46.717Z,24.6
2017-07-22T11:50:49.175Z,24.6
2017-07-22T11:51:51.280Z,24.6
2017-07-22T11:52:53.391Z,24.6
2017-07-22T11:53:55.505Z,24.5
2017-07-22T11:54:57.614Z,24.4
2017-07-22T11:56:00.060Z,24.4
2017-07-22T11:57:02.854Z,24.4
2017-07-22T11:58:04.948Z,24.4
2017-07-22T11:59:07.750Z,24.3
2017-07-22T12:00:09.882Z,24.3
2017-07-22T12:01:12.402Z,24.3
2017-07-22T12:02:14.548Z,24.3
2017-07-22T12:03:16.665Z,24.2
2017-07-22T12:04:19.135Z,24.2
2017-07-22T12:05:21.628Z,24.2
2017-07-22T12:06:23.744Z,24.2
2017-07-22T12:07:25.887Z,24.2
2017-07-22T12:08:28.064Z,24.2
2017-07-22T12:09:30.557Z,24.2
2017-07-22T12:10:33.028Z,24.1
2017-07-22T12:11:35.215Z,24.2
2017-07-22T12:12:37.357Z,24.1
2017-07-22T12:13:39.863Z,24.1
2017-07-22T12:14:41.983Z,24.1
2017-07-22T12:15:44.095Z,24.1
2017-07-22T12:16:46.250Z,24.1
2017-07-22T12:17:48.728Z,24.1
2017-07-22T12:18:51.214Z,24
2017-07-22T12:19:53.735Z,24
2017-07-22T12:20:56.203Z,24
2017-07-22T12:21:58.362Z,24
2017-07-22T12:23:00.523Z,24
2017-07-22T12:24:02.978Z,23.9
2017-07-22T12:25:05.440Z,23.9
2017-07-22T12:26:07.913Z,23.9
2017-07-22T12:27:10.056Z,23.9
2017-07-22T12:28:12.208Z,23.9
2017-07-22T12:29:14.666Z,23.9
2017-07-22T12:30:16.823Z,23.9
2017-07-22T12:31:18.968Z,23.9
2017-07-22T12:32:21.097Z,23.9
2017-07-22T12:33:23.277Z,24
2017-07-22T12:34:25.438Z,24
2017-07-22T12:35:27.940Z,24
2017-07-22T12:36:30.447Z,24.1
2017-07-22T12:37:32.947Z,24.1
2017-07-22T12:38:35.417Z,24.2
2017-07-22T12:39:37.900Z,24.2
2017-07-22T12:40:40.065Z,24.2
2017-07-22T12:41:42.217Z,24.2
2017-07-22T12:42:44.359Z,24.2
2017-07-22T12:43:46.812Z,24.2
2017-07-22T12:44:49.310Z,24.2
2017-07-22T12:45:51.802Z,24.2
2017-07-22T12:46:53.941Z,24.2
2017-07-22T12:47:56.083Z,24.3
2017-07-22T12:48:58.199Z,24.3
2017-07-22T12:50:00.677Z,24.3
2017-07-22T12:51:02.841Z,24.3
2017-07-22T12:52:05.307Z,24.3
2017-07-22T12:53:07.467Z,24.3
2017-07-22T12:54:09.605Z,24.3
2017-07-22T12:55:12.076Z,24.4
2017-07-22T12:56:14.243Z,24.4
2017-07-22T12:57:16.986Z,24.4
2017-07-22T12:58:19.113Z,24.4
2017-07-22T12:59:21.640Z,24.4
2017-07-22T13:00:23.803Z,24.4
2017-07-22T13:01:26.649Z,24.4
2017-07-22T13:02:29.044Z,24.4
2017-07-22T13:03:31.760Z,24.4
2017-07-22T13:04:33.933Z,24.4
2017-07-22T13:05:36.105Z,24.4
2017-07-22T13:06:38.261Z,24.4
2017-07-22T13:07:40.426Z,24.4
2017-07-22T13:08:42.962Z,24.4
2017-07-22T13:09:45.131Z,24.4
2017-07-22T13:10:47.257Z,24.4
2017-07-22T13:11:49.738Z,24.4
2017-07-22T13:12:51.861Z,24.5
2017-07-22T13:13:54.061Z,24.5
2017-07-22T13:14:56.554Z,24.5
2017-07-22T13:15:59.378Z,24.5
2017-07-22T13:17:01.869Z,24.5
2017-07-22T13:18:04.373Z,24.5
2017-07-22T13:19:06.559Z,24.5
2017-07-22T13:20:08.722Z,24.4
2017-07-22T13:21:10.905Z,24.5
2017-07-22T13:22:13.050Z,24.4
2017-07-22T13:23:15.514Z,24.4
2017-07-22T13:24:17.671Z,24.4
2017-07-22T13:25:20.187Z,24.5
2017-07-22T13:26:22.686Z,24.5
2017-07-22T13:27:24.843Z,24.5
2017-07-22T13:28:26.991Z,24.5
2017-07-22T13:29:29.142Z,24.5
2017-07-22T13:30:31.627Z,24.5
2017-07-22T13:31:33.787Z,24.4
2017-07-22T13:32:36.258Z,24.4
2017-07-22T13:33:38.723Z,24.3
2017-07-22T13:34:40.875Z,24.3
2017-07-22T13:35:43.013Z,24.3
2017-07-22T13:36:45.168Z,24.3
2017-07-22T13:37:47.348Z,24.3
2017-07-22T13:38:49.465Z,24.3
2017-07-22T13:39:51.606Z,24.3
2017-07-22T13:40:54.444Z,24.3
2017-07-22T13:41:56.589Z,24.2
2017-07-22T13:42:59.039Z,24.2
2017-07-22T13:44:01.173Z,24.2
2017-07-22T13:45:03.317Z,24.2
2017-07-22T13:46:05.845Z,24.2
2017-07-22T13:47:07.938Z,24.2
2017-07-22T13:48:10.090Z,24.3
2017-07-22T13:49:12.565Z,24.3
2017-07-22T13:50:14.678Z,24.3
2017-07-22T13:51:16.815Z,24.3
2017-07-22T13:52:18.941Z,24.3
2017-07-22T13:53:21.768Z,24.3
2017-07-22T13:54:23.904Z,24.3